This is the latest recevied weather packets stored in our database for station/object OE-11140. If no packets are shown the sender has not sent any weather packets the latest 10 day(s).
| Time | Temp. | Humidity | Pressure | Rain* | Wind** | Luminosity | Snow |
|---|---|---|---|---|---|---|---|
| 1788151289 | 17.78° C | 87% | 1017.2 hPa | 0.51 mm | - | 0 W/m² | - |
| 1788150917 | 17.78° C | 87% | 1016.6 hPa | 0.25 mm | - | 0 W/m² | - |
| 1788150317 | 17.78° C | 86% | 1016.2 hPa | 0.25 mm | - | 0 W/m² | - |
| 1788149729 | 17.78° C | 86% | 1016 hPa | 0.25 mm | - | 0 W/m² | - |
| 1788149117 | 17.78° C | 84% | 1015.9 hPa | 0.25 mm | - | 0 W/m² | - |
| 1788148517 | 16.67° C | 92% | 1015.6 hPa | 0.51 mm | - | 0 W/m² | - |
| 1788147917 | 16.67° C | 94% | 1015.5 hPa | 0.51 mm | - | 0 W/m² | - |
| 1788147317 | 16.67° C | 92% | 1015.4 hPa | 0.51 mm | - | 0 W/m² | - |
| 1788146717 | 16.67° C | 94% | 1015.2 hPa | 0.51 mm | - | 0 W/m² | - |
| 1788145889 | 16.67° C | 94% | 1015.2 hPa | 0.51 mm | - | 0 W/m² | - |
| 1788145517 | 17.22° C | 94% | 1015.1 hPa | 0.51 mm | - | 0 W/m² | - |
| 1788144090 | 16.67° C | 93% | 1015.6 hPa | 0 mm | - | 0 W/m² | - |
| 1788143717 | 17.22° C | 93% | 1015.5 hPa | 0 mm | - | 0 W/m² | - |
| 1788143117 | 17.22° C | 92% | 1015.6 hPa | 0 mm | - | 0 W/m² | - |
| 1788122491 | 17.78° C | 93% | 1015.9 hPa | 0.51 mm | - | 0 W/m² | - |
| 1788120690 | 18.33° C | 90% | 1015.8 hPa | 2.54 mm | - | 0 W/m² | - |
| 1788120317 | 18.33° C | 89% | 1015.8 hPa | 2.54 mm | - | 0 W/m² | - |
| 1788117089 | 20° C | 76% | 1014.7 hPa | 0 mm | - | 0 W/m² | - |
| 1788116716 | 20° C | 70% | 1014.6 hPa | 0 mm | - | 0 W/m² | - |
| 1788113489 | 21.11° C | 69% | 1013.5 hPa | 0 mm | - | 7 W/m² | - |
| 1788113116 | 21.67° C | 68% | 1013.2 hPa | 0 mm | - | 7 W/m² | - |
| 1788112516 | 22.22° C | 67% | 1013 hPa | 0 mm | - | 20 W/m² | - |
| 1788111317 | 22.78° C | 62% | 1012.7 hPa | 0 mm | - | 27 W/m² | - |
| 1788109889 | 23.89° C | 54% | 1012.4 hPa | 0 mm | - | 60 W/m² | - |
| 1788108089 | 24.44° C | 50% | 1012.1 hPa | 0 mm | - | 80 W/m² | - |
* Rain latest hour (hover to see other rain measurements)
** Current wind speed in m/s (hover to see current wind gust speed)